createdAt,value
2018-09-04T00:00:40.073Z,45.75
2018-09-04T00:03:08.382Z,49.50
2018-09-04T00:05:36.694Z,47.50
2018-09-04T00:08:05.201Z,45.25
2018-09-04T00:10:35.668Z,48.00
2018-09-04T00:13:03.990Z,48.75
2018-09-04T00:15:32.316Z,47.00
2018-09-04T00:18:00.664Z,52.25
2018-09-04T00:20:29.424Z,50.00
2018-09-04T00:22:58.681Z,49.50
2018-09-04T00:25:27.108Z,46.50
2018-09-04T00:27:55.416Z,48.25
2018-09-04T00:30:24.760Z,48.75
2018-09-04T00:32:54.003Z,50.75
2018-09-04T00:35:23.847Z,48.50
2018-09-04T00:37:53.019Z,46.50
2018-09-04T00:40:21.369Z,52.00
2018-09-04T00:42:49.662Z,49.00
2018-09-04T00:45:17.975Z,49.00
2018-09-04T00:47:46.289Z,49.25
2018-09-04T00:50:16.358Z,48.00
2018-09-04T00:55:42.490Z,49.50
2018-09-04T00:58:10.771Z,47.50
2018-09-04T01:00:39.083Z,55.75
2018-09-04T01:03:08.063Z,52.50
2018-09-04T01:05:36.412Z,51.25
2018-09-04T01:08:06.776Z,51.75
2018-09-04T01:10:35.703Z,50.75
2018-09-04T01:13:04.046Z,51.25
2018-09-04T01:15:32.414Z,51.50
2018-09-04T01:18:00.680Z,54.25
2018-09-04T01:20:29.003Z,50.00
2018-09-04T01:22:57.307Z,52.50
2018-09-04T01:25:25.727Z,53.50
2018-09-04T01:27:54.078Z,50.00
2018-09-04T01:30:23.838Z,55.25
2018-09-04T01:32:53.059Z,52.50
2018-09-04T01:35:21.517Z,51.50
2018-09-04T01:37:49.863Z,53.25
2018-09-04T01:40:18.191Z,53.00
2018-09-04T01:42:46.550Z,52.00
2018-09-04T01:45:14.903Z,53.50
2018-09-04T01:47:43.255Z,51.25
2018-09-04T01:50:11.547Z,49.00
2018-09-04T01:52:41.143Z,52.50
2018-09-04T01:55:09.484Z,49.75
2018-09-04T01:57:37.822Z,48.25
2018-09-04T02:00:07.607Z,51.50
2018-09-04T02:02:36.636Z,50.00
2018-09-04T02:05:08.222Z,54.00
2018-09-04T02:07:36.624Z,52.25
2018-09-04T02:10:06.808Z,53.75
2018-09-04T02:12:35.216Z,51.25
2018-09-04T02:15:03.601Z,52.50
2018-09-04T02:17:31.949Z,52.75
2018-09-04T02:20:00.367Z,52.75
2018-09-04T02:22:28.707Z,56.00
2018-09-04T02:24:57.039Z,49.25
2018-09-04T02:27:25.378Z,53.25
2018-09-04T02:29:54.088Z,48.75
2018-09-04T02:32:22.471Z,50.50
2018-09-04T02:34:50.844Z,53.75
2018-09-04T02:37:19.198Z,49.00
2018-09-04T02:39:47.513Z,49.25
2018-09-04T02:42:15.908Z,53.25
2018-09-04T02:44:49.854Z,52.25
2018-09-04T02:47:19.261Z,51.75
2018-09-04T02:49:48.323Z,54.50
2018-09-04T02:52:17.731Z,50.00
2018-09-04T02:54:46.046Z,54.50
2018-09-04T02:57:14.440Z,56.50
2018-09-04T02:59:43.304Z,54.75
2018-09-04T03:02:11.892Z,52.00
2018-09-04T03:04:40.263Z,49.25
2018-09-04T03:07:09.529Z,53.50
2018-09-04T03:09:38.763Z,48.50
2018-09-04T03:12:08.109Z,48.00
2018-09-04T03:14:36.491Z,51.25
2018-09-04T03:17:04.857Z,48.75
2018-09-04T03:19:33.168Z,53.50
2018-09-04T03:22:01.496Z,49.25
2018-09-04T03:24:30.687Z,51.50
2018-09-04T03:26:59.363Z,48.25
2018-09-04T03:29:27.719Z,45.50
2018-09-04T03:31:56.071Z,46.25
2018-09-04T03:34:24.424Z,50.50
2018-09-04T03:36:55.672Z,51.25
2018-09-04T03:39:24.187Z,48.75
2018-09-04T03:41:52.550Z,51.25
2018-09-04T03:44:20.863Z,53.25
2018-09-04T03:46:49.271Z,50.25
2018-09-04T03:49:24.076Z,49.50
2018-09-04T03:51:52.370Z,48.25
2018-09-04T03:54:20.713Z,48.25
2018-09-04T03:56:50.079Z,49.00
2018-09-04T03:59:18.395Z,49.00
2018-09-04T04:01:48.746Z,47.00
2018-09-04T04:04:17.064Z,54.75
2018-09-04T04:06:45.388Z,46.50
2018-09-04T04:09:14.328Z,43.75
2018-09-04T04:11:42.679Z,44.00
2018-09-04T04:14:11.016Z,52.25
2018-09-04T04:16:39.349Z,44.75
2018-09-04T04:19:07.660Z,43.25
2018-09-04T04:21:35.965Z,45.00
2018-09-04T04:24:06.055Z,45.00
2018-09-04T04:26:34.364Z,48.50
2018-09-04T04:29:02.707Z,45.00
2018-09-04T04:31:31.016Z,44.00
2018-09-04T04:33:59.307Z,44.50
2018-09-04T04:36:27.654Z,44.50
2018-09-04T04:39:06.798Z,41.25
2018-09-04T04:41:35.423Z,47.00
2018-09-04T04:44:04.867Z,46.75
2018-09-04T04:46:33.180Z,46.25
2018-09-04T04:49:01.471Z,45.25
2018-09-04T04:51:29.762Z,44.00
2018-09-04T04:53:58.035Z,46.25
2018-09-04T04:56:26.335Z,46.75
2018-09-04T04:58:54.636Z,40.50
2018-09-04T05:01:22.939Z,44.75
2018-09-04T05:03:51.367Z,42.75
2018-09-04T05:06:20.553Z,45.00
2018-09-04T05:08:48.848Z,47.75
2018-09-04T05:11:17.250Z,46.25
2018-09-04T05:13:45.469Z,43.75
2018-09-04T05:16:13.779Z,43.50
2018-09-04T05:18:42.125Z,44.25
2018-09-04T05:21:11.351Z,43.00
2018-09-04T05:23:39.733Z,45.50
2018-09-04T05:26:08.054Z,44.50
2018-09-04T05:28:36.431Z,49.50
2018-09-04T05:31:04.777Z,51.00
2018-09-04T05:33:35.847Z,49.00
2018-09-04T05:36:04.163Z,48.50
2018-09-04T05:38:32.489Z,49.50
2018-09-04T05:41:00.808Z,48.00
2018-09-04T05:43:36.234Z,44.75
2018-09-04T05:46:09.713Z,48.25
2018-09-04T05:48:38.059Z,48.25
2018-09-04T05:51:06.375Z,49.75
2018-09-04T05:53:36.603Z,46.00
2018-09-04T05:56:04.911Z,47.00
2018-09-04T05:58:33.227Z,45.00
2018-09-04T06:01:02.851Z,44.50
2018-09-04T06:03:31.178Z,47.00
2018-09-04T06:05:59.508Z,45.25
2018-09-04T06:08:27.803Z,48.00
2018-09-04T06:10:56.091Z,47.50
2018-09-04T06:13:24.423Z,48.00
2018-09-04T06:15:52.759Z,44.25
2018-09-04T06:18:21.102Z,46.75
2018-09-04T06:20:49.376Z,53.00
2018-09-04T06:23:17.994Z,46.50
2018-09-04T06:25:46.409Z,47.00
2018-09-04T06:28:14.740Z,45.25
2018-09-04T06:30:43.110Z,49.50
2018-09-04T06:33:11.408Z,47.00
2018-09-04T06:35:39.720Z,47.50
2018-09-04T06:38:08.024Z,48.00
2018-09-04T06:40:36.353Z,49.75
2018-09-04T06:43:04.703Z,53.25
2018-09-04T06:45:33.011Z,46.50
2018-09-04T06:48:01.332Z,47.25
2018-09-04T06:50:29.636Z,46.00
2018-09-04T06:52:57.932Z,47.00
2018-09-04T06:55:26.169Z,47.50
2018-09-04T06:57:54.567Z,44.00
2018-09-04T07:00:22.898Z,46.75
2018-09-04T07:02:51.200Z,44.00
2018-09-04T07:05:19.523Z,52.50
2018-09-04T07:07:47.842Z,42.00
2018-09-04T07:10:16.224Z,43.25
2018-09-04T07:12:44.527Z,46.75
2018-09-04T07:15:12.840Z,45.25
2018-09-04T07:17:41.135Z,49.00
2018-09-04T07:20:09.445Z,51.25
2018-09-04T07:22:37.789Z,49.25
2018-09-04T07:25:06.348Z,46.50
2018-09-04T07:27:35.761Z,48.25
2018-09-04T07:30:04.808Z,47.50
2018-09-04T07:32:34.213Z,49.50
2018-09-04T07:35:02.520Z,47.75
2018-09-04T07:37:30.806Z,44.25
2018-09-04T07:39:59.819Z,50.00
2018-09-04T07:42:28.135Z,43.50
2018-09-04T07:44:56.483Z,42.75
2018-09-04T07:47:24.775Z,46.50
2018-09-04T07:49:53.068Z,41.25
2018-09-04T07:52:21.363Z,41.25
2018-09-04T07:54:49.681Z,40.50
2018-09-04T07:57:17.962Z,40.75
2018-09-04T07:59:46.555Z,39.00
2018-09-04T08:02:14.848Z,40.75
2018-09-04T08:04:43.139Z,44.50
2018-09-04T08:07:11.473Z,41.75
2018-09-04T08:09:39.763Z,41.00
2018-09-04T08:12:08.177Z,43.75
2018-09-04T08:14:36.482Z,38.75
2018-09-04T08:17:04.797Z,41.00
2018-09-04T08:19:33.087Z,43.00
2018-09-04T08:22:01.357Z,42.00
2018-09-04T08:24:29.947Z,41.00
2018-09-04T08:26:58.294Z,40.00
2018-09-04T08:29:26.595Z,40.50
2018-09-04T08:31:55.119Z,43.00
2018-09-04T08:34:24.291Z,41.50
2018-09-04T08:36:52.611Z,41.25
2018-09-04T08:39:20.926Z,41.50
2018-09-04T08:41:49.258Z,39.00
2018-09-04T08:44:17.551Z,38.75
2018-09-04T08:46:45.884Z,37.75
2018-09-04T08:49:14.176Z,41.50
2018-09-04T08:51:42.478Z,43.75
2018-09-04T08:54:11.360Z,40.75
2018-09-04T08:56:39.659Z,40.75
2018-09-04T08:59:07.979Z,40.50
2018-09-04T09:01:36.260Z,41.25
2018-09-04T09:04:04.566Z,43.25
2018-09-04T09:06:32.815Z,40.75
2018-09-04T09:09:01.156Z,43.50
2018-09-04T09:11:29.475Z,38.00
2018-09-04T09:13:57.763Z,41.00
2018-09-04T09:16:26.038Z,36.75
2018-09-04T09:18:54.381Z,40.75
2018-09-04T09:21:22.649Z,39.00
2018-09-04T09:23:50.941Z,38.75
2018-09-04T09:26:19.256Z,38.25
2018-09-04T09:28:47.544Z,37.75
2018-09-04T09:31:15.811Z,37.00
2018-09-04T09:33:44.147Z,37.50
2018-09-04T09:36:12.459Z,36.75
2018-09-04T09:38:40.769Z,36.75
2018-09-04T09:41:09.053Z,38.75
2018-09-04T09:43:37.413Z,36.75
2018-09-04T09:46:05.738Z,39.25
2018-09-04T09:48:39.393Z,36.50
2018-09-04T09:51:07.855Z,36.75
2018-09-04T09:53:36.515Z,41.00
2018-09-04T09:56:05.777Z,39.50
2018-09-04T09:58:34.074Z,40.25
2018-09-04T10:01:07.855Z,36.00
2018-09-04T10:03:42.290Z,36.50
2018-09-04T10:06:10.627Z,37.00
2018-09-04T10:08:38.919Z,37.75
2018-09-04T10:11:07.469Z,36.75
2018-09-04T10:13:35.731Z,36.75
2018-09-04T10:16:04.077Z,37.00
2018-09-04T10:18:32.344Z,37.75
2018-09-04T10:21:00.620Z,36.75
2018-09-04T10:23:28.990Z,38.75
2018-09-04T10:25:57.306Z,36.50
2018-09-04T10:28:25.757Z,35.25
2018-09-04T10:30:54.074Z,37.50
2018-09-04T10:33:23.236Z,35.25
2018-09-04T10:35:51.556Z,34.25
2018-09-04T10:38:24.236Z,33.00
2018-09-04T10:40:55.065Z,34.00
2018-09-04T10:43:26.128Z,35.00
2018-09-04T10:45:59.634Z,35.00
2018-09-04T10:48:29.440Z,32.00
2018-09-04T10:50:57.832Z,34.50
2018-09-04T10:53:26.292Z,35.00
2018-09-04T10:55:54.668Z,36.75
2018-09-04T10:58:23.000Z,31.00
2018-09-04T11:00:51.321Z,31.25
2018-09-04T11:03:19.621Z,33.50
2018-09-04T11:05:47.932Z,34.00
2018-09-04T11:08:16.247Z,33.75
2018-09-04T11:10:44.551Z,32.25
2018-09-04T11:13:12.874Z,33.75
2018-09-04T11:15:41.197Z,35.00
2018-09-04T11:18:09.568Z,32.50
2018-09-04T11:20:37.877Z,36.00
2018-09-04T11:23:06.207Z,31.00
2018-09-04T11:25:34.518Z,33.00
2018-09-04T11:28:02.827Z,31.00
2018-09-04T11:30:31.157Z,34.25
2018-09-04T11:32:59.464Z,32.00
2018-09-04T11:35:27.803Z,32.75
2018-09-04T11:37:56.096Z,32.75
2018-09-04T11:40:24.396Z,30.75
2018-09-04T11:42:52.718Z,32.50
2018-09-04T11:45:21.566Z,35.00
2018-09-04T11:47:49.865Z,34.75
2018-09-04T11:50:18.683Z,38.00
2018-09-04T11:52:46.963Z,33.75
2018-09-04T11:55:15.299Z,37.25
2018-09-04T11:57:43.596Z,34.75
2018-09-04T12:00:17.284Z,35.25
2018-09-04T12:02:46.068Z,31.00
2018-09-04T12:05:14.358Z,35.25
2018-09-04T12:07:42.662Z,35.50
2018-09-04T12:10:11.634Z,31.50
2018-09-04T12:12:40.669Z,32.00
2018-09-04T12:15:08.815Z,33.75
2018-09-04T12:17:37.211Z,31.75
2018-09-04T12:20:16.679Z,34.25
2018-09-04T12:22:45.015Z,36.00
2018-09-04T12:25:13.322Z,31.00
2018-09-04T12:27:41.624Z,33.00
2018-09-04T12:30:10.136Z,33.00
2018-09-04T12:32:38.431Z,31.50
2018-09-04T12:35:06.790Z,33.75
2018-09-04T12:37:35.109Z,34.25
2018-09-04T12:40:03.432Z,31.75
2018-09-04T12:42:31.771Z,31.50
2018-09-04T12:45:01.029Z,33.75
2018-09-04T12:47:29.575Z,32.00
2018-09-04T12:49:58.170Z,32.50
2018-09-04T12:52:26.463Z,31.50
2018-09-04T12:54:54.756Z,28.25
2018-09-04T12:57:23.078Z,30.50
2018-09-04T12:59:52.489Z,33.25
2018-09-04T13:02:20.722Z,34.50
2018-09-04T13:04:49.012Z,30.75
2018-09-04T13:07:17.460Z,32.75
2018-09-04T13:09:45.787Z,30.50
2018-09-04T13:12:14.137Z,32.50
2018-09-04T13:14:42.649Z,33.00
2018-09-04T13:17:10.886Z,31.25
2018-09-04T13:19:39.168Z,29.75
2018-09-04T13:22:08.095Z,29.00
2018-09-04T13:24:36.418Z,32.75
2018-09-04T13:27:04.770Z,31.00
2018-09-04T13:29:33.079Z,29.25
2018-09-04T13:32:01.372Z,31.25
2018-09-04T13:34:29.691Z,33.00
2018-09-04T13:36:58.023Z,31.00
2018-09-04T13:39:26.315Z,33.00
2018-09-04T13:41:56.914Z,30.75
2018-09-04T13:44:25.228Z,33.00
2018-09-04T13:46:53.532Z,33.25
2018-09-04T13:49:21.889Z,32.75
2018-09-04T13:51:50.190Z,30.75
2018-09-04T13:54:18.475Z,33.25
2018-09-04T13:56:46.817Z,29.00
2018-09-04T13:59:15.093Z,29.75
2018-09-04T14:01:47.103Z,28.00
2018-09-04T14:04:16.445Z,30.00
2018-09-04T14:06:44.851Z,28.50
2018-09-04T14:09:13.162Z,33.00
2018-09-04T14:11:41.535Z,29.75
2018-09-04T14:14:09.852Z,25.25
2018-09-04T14:16:43.150Z,29.00
2018-09-04T14:19:06.531Z,31.00
2018-09-04T14:21:34.836Z,27.75
2018-09-04T14:24:03.127Z,32.00
2018-09-04T14:26:31.448Z,30.25
2018-09-04T14:29:06.964Z,33.75
2018-09-04T14:31:28.051Z,36.50
2018-09-04T14:33:56.383Z,38.25
2018-09-04T14:36:25.791Z,42.50
2018-09-04T14:38:54.096Z,41.25
2018-09-04T14:41:22.383Z,44.25
2018-09-04T14:43:51.523Z,45.25
2018-09-04T14:46:19.801Z,42.50
2018-09-04T14:48:48.134Z,44.75
2018-09-04T14:51:16.433Z,40.50
2018-09-04T14:53:44.723Z,43.00
2018-09-04T14:56:13.144Z,43.00
2018-09-04T14:58:41.471Z,40.25
2018-09-04T15:01:09.753Z,41.25
2018-09-04T15:03:38.061Z,41.00
2018-09-04T15:06:17.857Z,39.25
2018-09-04T15:08:46.172Z,42.00
2018-09-04T15:11:14.491Z,39.25
2018-09-04T15:13:42.788Z,39.25
2018-09-04T15:16:11.073Z,42.00
2018-09-04T15:18:41.295Z,39.25
2018-09-04T15:21:09.591Z,41.75
2018-09-04T15:23:37.841Z,38.25
2018-09-04T15:26:06.223Z,38.00
2018-09-04T15:28:34.452Z,39.25
2018-09-04T15:31:02.756Z,41.00
2018-09-04T15:33:31.121Z,37.50
2018-09-04T15:35:59.400Z,41.00
2018-09-04T15:38:27.677Z,39.00
2018-09-04T15:40:55.940Z,37.50
2018-09-04T15:43:24.258Z,37.00
2018-09-04T15:45:52.582Z,35.75
2018-09-04T15:48:20.827Z,32.25
2018-09-04T15:50:49.131Z,30.75
2018-09-04T15:53:17.430Z,27.50
2018-09-04T15:55:45.738Z,28.25
2018-09-04T15:58:14.056Z,27.75
2018-09-04T16:00:42.347Z,27.00
2018-09-04T16:03:10.637Z,30.75
2018-09-04T16:05:39.692Z,31.00
2018-09-04T16:08:08.077Z,34.00
2018-09-04T16:10:36.364Z,22.00
2018-09-04T16:13:04.648Z,25.00
2018-09-04T16:15:32.943Z,23.00
2018-09-04T16:18:01.239Z,20.75
2018-09-04T16:20:29.532Z,20.75
2018-09-04T16:22:57.832Z,19.75
2018-09-04T16:25:26.152Z,21.00
2018-09-04T16:27:54.430Z,20.50
2018-09-04T16:30:22.733Z,21.00
2018-09-04T16:32:51.027Z,19.75
2018-09-04T16:35:19.310Z,18.75
2018-09-04T16:37:47.605Z,23.00
2018-09-04T16:40:15.908Z,21.50
2018-09-04T16:42:44.206Z,23.75
2018-09-04T16:45:12.481Z,19.00
2018-09-04T16:47:40.775Z,19.00
2018-09-04T16:50:09.086Z,22.25
2018-09-04T16:52:37.392Z,24.25
2018-09-04T16:55:05.890Z,21.50
2018-09-04T16:57:34.173Z,25.25
2018-09-04T17:00:02.437Z,22.25
2018-09-04T17:02:31.125Z,23.00
2018-09-04T17:04:59.459Z,20.75
2018-09-04T17:07:27.776Z,24.50
2018-09-04T17:09:56.061Z,27.50
2018-09-04T17:12:24.459Z,27.00
2018-09-04T17:14:52.812Z,31.25
2018-09-04T17:17:21.112Z,26.50
2018-09-04T17:19:49.467Z,31.00
2018-09-04T17:22:17.775Z,30.75
2018-09-04T17:24:46.232Z,28.25
2018-09-04T17:27:14.552Z,28.50
2018-09-04T17:29:43.728Z,27.00
2018-09-04T17:32:12.105Z,30.75
2018-09-04T17:34:40.397Z,27.50
2018-09-04T17:37:08.701Z,30.00
2018-09-04T17:39:37.602Z,30.00
2018-09-04T17:42:10.033Z,28.50
2018-09-04T17:44:39.916Z,34.25
2018-09-04T17:47:12.339Z,31.50
2018-09-04T17:49:44.758Z,26.50
2018-09-04T17:52:13.291Z,27.75
2018-09-04T17:54:42.757Z,31.25
2018-09-04T17:57:11.183Z,27.75
2018-09-04T17:59:39.481Z,28.50
2018-09-04T18:02:07.780Z,27.00
2018-09-04T18:04:36.168Z,25.25
2018-09-04T18:07:04.465Z,27.50
2018-09-04T18:09:32.740Z,26.25
2018-09-04T18:12:02.709Z,28.25
2018-09-04T18:14:30.900Z,25.25
2018-09-04T18:16:59.294Z,27.00
2018-09-04T18:19:27.589Z,27.00
2018-09-04T18:21:55.879Z,29.50
2018-09-04T18:24:25.488Z,28.50
2018-09-04T18:26:53.783Z,28.00
2018-09-04T18:29:23.437Z,30.50
2018-09-04T18:31:56.357Z,30.25
2018-09-04T18:34:38.781Z,26.50
2018-09-04T18:37:07.116Z,25.75
2018-09-04T18:39:35.465Z,31.75
2018-09-04T18:42:03.763Z,34.25
2018-09-04T18:44:33.846Z,31.25
2018-09-04T18:47:02.146Z,34.00
2018-09-04T18:49:30.432Z,34.75
2018-09-04T18:51:58.719Z,35.00
2018-09-04T18:54:27.011Z,33.75
2018-09-04T18:56:57.339Z,36.00
2018-09-04T18:59:25.847Z,36.00
2018-09-04T19:01:54.477Z,38.00
2018-09-04T19:04:22.752Z,38.50
2018-09-04T19:06:51.126Z,39.50
2018-09-04T19:09:19.321Z,39.25
2018-09-04T19:11:47.603Z,38.00
2018-09-04T19:14:15.959Z,37.25
2018-09-04T19:16:44.212Z,38.50
2018-09-04T19:19:12.522Z,39.00
2018-09-04T19:21:40.834Z,40.00
2018-09-04T19:24:09.181Z,42.25
2018-09-04T19:26:37.442Z,43.50
2018-09-04T19:29:07.774Z,40.00
2018-09-04T19:31:36.081Z,43.00
2018-09-04T19:34:04.398Z,46.25
2018-09-04T19:36:32.687Z,45.75
2018-09-04T19:39:01.408Z,46.50
2018-09-04T19:41:29.689Z,49.50
2018-09-04T19:43:57.986Z,51.00
2018-09-04T19:46:26.385Z,50.50
2018-09-04T19:48:54.689Z,53.00
2018-09-04T19:51:23.010Z,52.75
2018-09-04T19:53:51.283Z,48.75
2018-09-04T19:56:19.898Z,51.50
2018-09-04T19:58:48.239Z,52.00
2018-09-04T20:01:16.539Z,54.00
2018-09-04T20:03:45.072Z,52.25
2018-09-04T20:06:13.558Z,55.75
2018-09-04T20:08:42.084Z,51.50
2018-09-04T20:11:10.387Z,53.25
2018-09-04T20:13:38.682Z,54.00
2018-09-04T20:16:06.964Z,49.75
2018-09-04T20:18:35.251Z,52.00
2018-09-04T20:21:03.536Z,51.50
2018-09-04T20:23:31.835Z,56.75
2018-09-04T20:26:00.146Z,51.75
2018-09-04T20:28:28.414Z,56.00
2018-09-04T20:30:56.778Z,53.50
2018-09-04T20:33:25.093Z,54.75
2018-09-04T20:35:53.401Z,56.00
2018-09-04T20:38:21.677Z,56.50
2018-09-04T20:40:50.867Z,58.00
2018-09-04T20:43:19.233Z,56.75
2018-09-04T20:45:47.534Z,58.50
2018-09-04T20:48:15.839Z,56.75
2018-09-04T20:50:44.133Z,54.50
2018-09-04T20:53:12.407Z,56.75
2018-09-04T20:55:40.712Z,56.25
2018-09-04T20:58:20.423Z,57.25
2018-09-04T21:01:02.183Z,58.00
2018-09-04T21:03:41.684Z,54.00
2018-09-04T21:06:21.408Z,55.50
2018-09-04T21:08:58.918Z,57.00
2018-09-04T21:11:28.111Z,55.75
2018-09-04T21:13:56.503Z,57.75
2018-09-04T21:16:24.816Z,55.25
2018-09-04T21:18:53.154Z,58.75
2018-09-04T21:21:21.537Z,58.00
2018-09-04T21:23:49.774Z,58.75
2018-09-04T21:26:18.048Z,60.00
2018-09-04T21:28:46.347Z,59.75
2018-09-04T21:31:14.624Z,56.50
2018-09-04T21:33:42.883Z,60.50
2018-09-04T21:36:11.180Z,61.50
2018-09-04T21:38:39.442Z,57.00
2018-09-04T21:41:07.717Z,58.00
2018-09-04T21:43:36.004Z,56.25
2018-09-04T21:46:04.321Z,61.50
2018-09-04T21:48:32.592Z,60.50
2018-09-04T21:51:00.876Z,59.25
2018-09-04T21:54:12.606Z,54.00
2018-09-04T21:56:40.880Z,59.25
2018-09-04T21:59:09.156Z,59.00
2018-09-04T22:01:37.468Z,57.50
2018-09-04T22:04:05.814Z,57.25
2018-09-04T22:06:34.103Z,58.50
2018-09-04T22:09:02.394Z,59.75
2018-09-04T22:11:30.634Z,56.75
2018-09-04T22:13:58.962Z,60.50
2018-09-04T22:16:27.251Z,61.50
2018-09-04T22:18:55.538Z,58.50
2018-09-04T22:21:23.815Z,58.75
2018-09-04T22:23:52.112Z,61.75
2018-09-04T22:26:20.383Z,61.25
2018-09-04T22:28:48.678Z,55.75
2018-09-04T22:31:16.974Z,60.50
2018-09-04T22:33:45.274Z,58.00
2018-09-04T22:36:13.583Z,61.75
2018-09-04T22:38:41.842Z,57.25
2018-09-04T22:41:10.069Z,60.75
2018-09-04T22:43:38.580Z,63.50
2018-09-04T22:46:07.290Z,60.25
2018-09-04T22:48:35.574Z,59.75
2018-09-04T22:51:09.072Z,59.25
2018-09-04T22:53:37.374Z,58.25
2018-09-04T22:56:05.658Z,57.75
2018-09-04T22:58:33.958Z,60.00
2018-09-04T23:01:02.259Z,60.50
2018-09-04T23:03:30.491Z,59.75
2018-09-04T23:05:58.766Z,57.00
2018-09-04T23:08:27.418Z,59.25
2018-09-04T23:10:55.672Z,56.75
2018-09-04T23:13:24.083Z,59.75
2018-09-04T23:15:52.355Z,58.50
2018-09-04T23:18:20.642Z,60.00
2018-09-04T23:20:48.928Z,59.50
2018-09-04T23:23:17.222Z,59.75
2018-09-04T23:25:45.484Z,60.50
2018-09-04T23:28:13.776Z,62.50
2018-09-04T23:30:42.040Z,58.50
2018-09-04T23:33:10.345Z,59.75
2018-09-04T23:35:38.644Z,64.00
2018-09-04T23:38:06.913Z,59.75
2018-09-04T23:40:36.174Z,60.25
2018-09-04T23:43:04.514Z,61.25
2018-09-04T23:45:32.810Z,59.75
2018-09-04T23:48:01.069Z,63.00
2018-09-04T23:50:30.407Z,60.50
2018-09-04T23:52:58.704Z,58.00
2018-09-04T23:55:26.952Z,63.25
2018-09-04T23:57:55.291Z,61.25
